createdAt,value
2018-09-09T00:00:10.668Z,719
2018-09-09T00:01:17.880Z,719
2018-09-09T00:02:25.094Z,720
2018-09-09T00:03:32.303Z,719
2018-09-09T00:04:39.519Z,721
2018-09-09T00:05:46.745Z,720
2018-09-09T00:06:53.955Z,721
2018-09-09T00:08:01.163Z,720
2018-09-09T00:09:08.101Z,720
2018-09-09T00:10:15.317Z,720
2018-09-09T00:11:22.538Z,719
2018-09-09T00:12:29.758Z,720
2018-09-09T00:13:36.972Z,719
2018-09-09T00:14:44.193Z,719
2018-09-09T00:15:51.397Z,718
2018-09-09T00:16:58.605Z,717
2018-09-09T00:18:05.811Z,717
2018-09-09T00:19:13.022Z,719
2018-09-09T00:20:20.229Z,719
2018-09-09T00:21:27.443Z,719
2018-09-09T00:22:34.656Z,720
2018-09-09T00:23:41.593Z,720
2018-09-09T00:24:48.537Z,721
2018-09-09T00:25:55.746Z,720
2018-09-09T00:27:02.952Z,720
2018-09-09T00:28:10.166Z,720
2018-09-09T00:29:17.378Z,719
2018-09-09T00:30:24.589Z,718
2018-09-09T00:31:31.798Z,720
2018-09-09T00:32:39.007Z,719
2018-09-09T00:33:45.935Z,719
2018-09-09T00:34:53.165Z,719
2018-09-09T00:36:00.374Z,719
2018-09-09T00:37:07.315Z,720
2018-09-09T00:38:14.527Z,721
2018-09-09T00:39:21.463Z,721
2018-09-09T00:40:28.670Z,721
2018-09-09T00:41:35.883Z,722
2018-09-09T00:42:43.095Z,721
2018-09-09T00:43:50.038Z,720
2018-09-09T00:44:57.274Z,720
2018-09-09T00:46:04.488Z,720
2018-09-09T00:47:11.701Z,719
2018-09-09T00:48:18.913Z,721
2018-09-09T00:49:26.122Z,720
2018-09-09T00:50:33.332Z,720
2018-09-09T00:51:40.542Z,721
2018-09-09T00:52:47.750Z,721
2018-09-09T00:53:54.958Z,722
2018-09-09T00:55:02.172Z,722
2018-09-09T00:56:09.379Z,722
2018-09-09T00:57:16.584Z,723
2018-09-09T00:58:23.790Z,722
2018-09-09T00:59:31.003Z,723
2018-09-09T01:00:38.210Z,722
2018-09-09T01:01:45.417Z,722
2018-09-09T01:02:52.632Z,721
2018-09-09T01:03:59.841Z,722
2018-09-09T01:05:07.064Z,721
2018-09-09T01:06:14.273Z,721
2018-09-09T01:07:21.484Z,721
2018-09-09T01:08:28.694Z,719
2018-09-09T01:09:35.901Z,720
2018-09-09T01:10:43.108Z,720
2018-09-09T01:11:50.341Z,720
2018-09-09T01:12:57.555Z,719
2018-09-09T01:14:04.776Z,719
2018-09-09T01:15:11.978Z,719
2018-09-09T01:16:19.191Z,720
2018-09-09T01:17:26.404Z,721
2018-09-09T01:18:33.610Z,720
2018-09-09T01:19:40.823Z,720
2018-09-09T01:20:48.032Z,721
2018-09-09T01:21:55.246Z,721
2018-09-09T01:23:02.452Z,721
2018-09-09T01:24:09.671Z,722
2018-09-09T01:25:16.883Z,722
2018-09-09T01:26:24.096Z,722
2018-09-09T01:27:31.311Z,723
2018-09-09T01:28:38.518Z,723
2018-09-09T01:29:45.453Z,722
2018-09-09T01:30:52.660Z,722
2018-09-09T01:31:59.872Z,724
2018-09-09T01:33:06.531Z,723
2018-09-09T01:34:13.743Z,725
2018-09-09T01:35:20.954Z,725
2018-09-09T01:36:28.167Z,726
2018-09-09T01:37:35.384Z,724
2018-09-09T01:38:42.593Z,726
2018-09-09T01:39:49.814Z,726
2018-09-09T01:40:56.742Z,726
2018-09-09T01:42:03.956Z,727
2018-09-09T01:43:11.168Z,726
2018-09-09T01:44:18.383Z,727
2018-09-09T01:45:25.589Z,728
2018-09-09T01:46:32.246Z,726
2018-09-09T01:47:39.460Z,726
2018-09-09T01:48:46.671Z,725
2018-09-09T01:49:53.883Z,725
2018-09-09T01:51:01.095Z,726
2018-09-09T01:52:08.301Z,724
2018-09-09T01:53:15.510Z,724
2018-09-09T01:54:22.723Z,724
2018-09-09T01:55:29.375Z,725
2018-09-09T01:56:36.311Z,724
2018-09-09T01:57:43.521Z,725
2018-09-09T01:58:50.729Z,726
2018-09-09T01:59:57.939Z,725
2018-09-09T02:01:04.876Z,725
2018-09-09T02:02:12.081Z,727
2018-09-09T02:03:19.288Z,725
2018-09-09T02:04:26.232Z,726
2018-09-09T02:05:33.442Z,726
2018-09-09T02:06:40.658Z,725
2018-09-09T02:07:47.861Z,726
2018-09-09T02:08:55.073Z,726
2018-09-09T02:10:02.285Z,727
2018-09-09T02:11:09.500Z,726
2018-09-09T02:12:16.707Z,726
2018-09-09T02:13:23.919Z,725
2018-09-09T02:14:31.130Z,724
2018-09-09T02:15:38.336Z,726
2018-09-09T02:16:45.549Z,726
2018-09-09T02:17:52.760Z,725
2018-09-09T02:18:59.975Z,725
2018-09-09T02:20:06.907Z,727
2018-09-09T02:21:14.113Z,725
2018-09-09T02:22:21.320Z,724
2018-09-09T02:23:28.269Z,724
2018-09-09T02:24:35.497Z,726
2018-09-09T02:25:42.785Z,725
2018-09-09T02:26:50.031Z,725
2018-09-09T02:27:57.236Z,725
2018-09-09T02:29:04.443Z,725
2018-09-09T02:30:11.656Z,726
2018-09-09T02:31:18.860Z,725
2018-09-09T02:32:26.066Z,724
2018-09-09T02:33:47.927Z,725
2018-09-09T02:34:55.133Z,724
2018-09-09T02:36:02.343Z,725
2018-09-09T02:37:09.553Z,724
2018-09-09T02:38:16.767Z,724
2018-09-09T02:39:23.987Z,726
2018-09-09T02:40:31.198Z,724
2018-09-09T02:41:38.417Z,724
2018-09-09T02:42:45.620Z,725
2018-09-09T02:43:53.267Z,725
2018-09-09T02:45:00.635Z,725
2018-09-09T02:46:07.849Z,725
2018-09-09T02:47:15.055Z,725
2018-09-09T02:48:22.269Z,725
2018-09-09T02:49:29.476Z,727
2018-09-09T02:50:36.691Z,724
2018-09-09T02:51:43.620Z,725
2018-09-09T02:52:50.832Z,724
2018-09-09T02:53:58.049Z,723
2018-09-09T02:55:05.253Z,723
2018-09-09T02:56:12.462Z,724
2018-09-09T02:57:19.676Z,722
2018-09-09T02:58:26.890Z,723
2018-09-09T02:59:34.095Z,723
2018-09-09T03:00:41.031Z,723
2018-09-09T03:01:48.244Z,723
2018-09-09T03:02:55.451Z,723
2018-09-09T03:04:02.659Z,723
2018-09-09T03:05:09.878Z,722
2018-09-09T03:06:17.084Z,723
2018-09-09T03:07:24.017Z,723
2018-09-09T03:08:31.243Z,723
2018-09-09T03:09:38.467Z,724
2018-09-09T03:10:45.679Z,723
2018-09-09T03:11:52.891Z,723
2018-09-09T03:13:00.097Z,723
2018-09-09T03:14:07.308Z,724
2018-09-09T03:15:14.240Z,724
2018-09-09T03:16:21.447Z,725
2018-09-09T03:17:28.657Z,723
2018-09-09T03:18:35.863Z,723
2018-09-09T03:19:42.797Z,723
2018-09-09T03:20:50.006Z,723
2018-09-09T03:21:57.208Z,724
2018-09-09T03:23:04.140Z,725
2018-09-09T03:24:11.072Z,724
2018-09-09T03:25:18.283Z,724
2018-09-09T03:26:25.497Z,725
2018-09-09T03:27:32.710Z,725
2018-09-09T03:28:40.077Z,725
2018-09-09T03:29:47.388Z,724
2018-09-09T03:30:54.599Z,724
2018-09-09T03:32:01.814Z,725
2018-09-09T03:33:09.018Z,724
2018-09-09T03:34:16.227Z,727
2018-09-09T03:35:23.433Z,726
2018-09-09T03:36:30.372Z,725
2018-09-09T03:37:37.593Z,726
2018-09-09T03:38:44.529Z,726
2018-09-09T03:39:51.732Z,727
2018-09-09T03:40:58.941Z,726
2018-09-09T03:42:06.146Z,726
2018-09-09T03:43:13.357Z,727
2018-09-09T03:44:20.292Z,726
2018-09-09T03:45:27.502Z,726
2018-09-09T03:46:34.713Z,726
2018-09-09T03:47:41.658Z,726
2018-09-09T03:48:48.875Z,726
2018-09-09T03:49:56.080Z,726
2018-09-09T03:51:03.071Z,724
2018-09-09T03:52:10.007Z,725
2018-09-09T03:53:17.226Z,725
2018-09-09T03:54:24.446Z,723
2018-09-09T03:55:31.662Z,723
2018-09-09T03:56:38.600Z,722
2018-09-09T03:57:45.539Z,721
2018-09-09T03:58:52.740Z,721
2018-09-09T03:59:59.678Z,720
2018-09-09T04:01:06.897Z,721
2018-09-09T04:02:14.102Z,721
2018-09-09T04:03:21.316Z,724
2018-09-09T04:04:28.530Z,724
2018-09-09T04:05:35.735Z,724
2018-09-09T04:06:42.958Z,723
2018-09-09T04:07:49.901Z,723
2018-09-09T04:08:57.115Z,725
2018-09-09T04:10:04.673Z,724
2018-09-09T04:11:11.796Z,724
2018-09-09T04:12:19.007Z,723
2018-09-09T04:13:26.229Z,725
2018-09-09T04:14:33.431Z,724
2018-09-09T04:15:40.374Z,724
2018-09-09T04:16:47.587Z,724
2018-09-09T04:17:54.797Z,725
2018-09-09T04:19:02.001Z,725
2018-09-09T04:20:09.240Z,726
2018-09-09T04:21:16.452Z,725
2018-09-09T04:22:23.668Z,725
2018-09-09T04:23:30.876Z,726
2018-09-09T04:24:38.137Z,726
2018-09-09T04:25:45.343Z,728
2018-09-09T04:26:52.553Z,727
2018-09-09T04:27:59.767Z,726
2018-09-09T04:29:06.710Z,727
2018-09-09T04:30:13.916Z,727
2018-09-09T04:31:21.128Z,725
2018-09-09T04:32:28.338Z,727
2018-09-09T04:33:35.548Z,724
2018-09-09T04:34:42.756Z,726
2018-09-09T04:35:49.974Z,726
2018-09-09T04:36:57.181Z,726
2018-09-09T04:38:04.389Z,727
2018-09-09T04:39:11.598Z,727
2018-09-09T04:40:18.808Z,727
2018-09-09T04:41:26.021Z,728
2018-09-09T04:42:33.242Z,727
2018-09-09T04:43:40.455Z,729
2018-09-09T04:44:47.393Z,729
2018-09-09T04:45:54.620Z,730
2018-09-09T04:47:01.832Z,729
2018-09-09T04:48:08.765Z,729
2018-09-09T04:49:15.978Z,729
2018-09-09T04:50:23.185Z,729
2018-09-09T04:51:30.408Z,728
2018-09-09T04:52:37.624Z,730
2018-09-09T04:53:44.551Z,729
2018-09-09T04:54:51.756Z,729
2018-09-09T04:55:58.965Z,729
2018-09-09T04:57:06.179Z,728
2018-09-09T04:58:13.380Z,728
2018-09-09T04:59:20.589Z,728
2018-09-09T05:00:27.797Z,727
2018-09-09T05:01:35.015Z,727
2018-09-09T05:02:42.227Z,728
2018-09-09T05:03:49.446Z,727
2018-09-09T05:04:56.656Z,727
2018-09-09T05:06:03.858Z,727
2018-09-09T05:07:11.068Z,726
2018-09-09T05:08:18.286Z,725
2018-09-09T05:09:25.250Z,724
2018-09-09T05:10:32.448Z,723
2018-09-09T05:11:39.649Z,722
2018-09-09T05:12:46.853Z,721
2018-09-09T05:13:54.060Z,721
2018-09-09T05:15:01.267Z,722
2018-09-09T05:16:08.478Z,722
2018-09-09T05:17:15.683Z,722
2018-09-09T05:18:22.885Z,720
2018-09-09T05:19:30.094Z,721
2018-09-09T05:20:37.296Z,720
2018-09-09T05:21:44.223Z,721
2018-09-09T05:22:51.432Z,719
2018-09-09T05:23:58.639Z,719
2018-09-09T05:25:05.847Z,721
2018-09-09T05:26:12.785Z,721
2018-09-09T05:27:19.709Z,720
2018-09-09T05:28:26.929Z,721
2018-09-09T05:29:34.144Z,721
2018-09-09T05:30:41.352Z,721
2018-09-09T05:31:48.562Z,720
2018-09-09T05:32:55.768Z,721
2018-09-09T05:34:02.976Z,721
2018-09-09T05:35:10.193Z,721
2018-09-09T05:36:17.400Z,721
2018-09-09T05:37:24.370Z,720
2018-09-09T05:38:31.584Z,720
2018-09-09T05:39:38.546Z,720
2018-09-09T05:40:45.755Z,721
2018-09-09T05:41:52.964Z,721
2018-09-09T05:43:00.173Z,720
2018-09-09T05:44:07.379Z,721
2018-09-09T05:45:14.591Z,721
2018-09-09T05:46:21.799Z,721
2018-09-09T05:47:28.737Z,720
2018-09-09T05:48:35.641Z,721
2018-09-09T05:49:42.850Z,720
2018-09-09T05:50:49.790Z,720
2018-09-09T05:51:57.012Z,721
2018-09-09T05:53:03.949Z,719
2018-09-09T05:54:11.160Z,721
2018-09-09T05:55:18.379Z,720
2018-09-09T05:56:25.584Z,720
2018-09-09T05:57:32.796Z,719
2018-09-09T05:58:40.005Z,721
2018-09-09T05:59:46.941Z,720
2018-09-09T06:00:54.149Z,719
2018-09-09T06:02:01.087Z,720
2018-09-09T06:03:08.290Z,721
2018-09-09T06:04:15.503Z,719
2018-09-09T06:05:22.713Z,718
2018-09-09T06:06:29.927Z,720
2018-09-09T06:07:37.137Z,719
2018-09-09T06:08:44.354Z,721
2018-09-09T06:09:51.605Z,720
2018-09-09T06:10:58.811Z,719
2018-09-09T06:12:06.035Z,720
2018-09-09T06:13:13.239Z,720
2018-09-09T06:14:20.448Z,721
2018-09-09T06:15:27.388Z,720
2018-09-09T06:16:34.599Z,719
2018-09-09T06:17:41.532Z,722
2018-09-09T06:18:48.740Z,720
2018-09-09T06:19:55.945Z,721
2018-09-09T06:21:03.159Z,720
2018-09-09T06:22:10.368Z,719
2018-09-09T06:23:17.586Z,720
2018-09-09T06:24:24.792Z,720
2018-09-09T06:25:31.998Z,720
2018-09-09T06:26:38.933Z,721
2018-09-09T06:27:46.145Z,720
2018-09-09T06:28:53.077Z,719
2018-09-09T06:30:00.289Z,718
2018-09-09T06:31:07.497Z,720
2018-09-09T06:32:14.707Z,720
2018-09-09T06:33:21.922Z,720
2018-09-09T06:34:29.139Z,720
2018-09-09T06:35:36.359Z,720
2018-09-09T06:36:43.569Z,719
2018-09-09T06:37:50.777Z,720
2018-09-09T06:38:57.749Z,722
2018-09-09T06:40:05.046Z,720
2018-09-09T06:41:12.257Z,720
2018-09-09T06:42:19.201Z,719
2018-09-09T06:43:26.408Z,719
2018-09-09T06:44:33.614Z,719
2018-09-09T06:45:40.826Z,718
2018-09-09T06:46:48.041Z,719
2018-09-09T06:47:55.253Z,719
2018-09-09T06:49:02.468Z,719
2018-09-09T06:50:09.667Z,720
2018-09-09T06:51:16.954Z,719
2018-09-09T06:52:24.208Z,721
2018-09-09T06:53:31.141Z,720
2018-09-09T06:54:38.347Z,720
2018-09-09T06:55:45.561Z,721
2018-09-09T06:56:52.773Z,720
2018-09-09T06:57:59.713Z,719
2018-09-09T06:59:06.926Z,720
2018-09-09T07:00:14.132Z,719
2018-09-09T07:01:21.342Z,720
2018-09-09T07:02:29.033Z,719
2018-09-09T07:03:36.404Z,720
2018-09-09T07:04:43.617Z,718
2018-09-09T07:05:50.826Z,718
2018-09-09T07:06:58.040Z,717
2018-09-09T07:08:04.975Z,715
2018-09-09T07:09:12.185Z,715
2018-09-09T07:10:19.395Z,713
2018-09-09T07:11:27.421Z,713
2018-09-09T07:12:34.935Z,712
2018-09-09T07:13:42.139Z,710
2018-09-09T07:14:48.803Z,707
2018-09-09T07:15:56.015Z,708
2018-09-09T07:17:03.347Z,707
2018-09-09T07:18:10.610Z,707
2018-09-09T07:19:17.865Z,705
2018-09-09T07:20:25.085Z,707
2018-09-09T07:21:32.305Z,707
2018-09-09T07:22:39.680Z,709
2018-09-09T07:23:47.034Z,708
2018-09-09T07:24:54.241Z,707
2018-09-09T07:26:16.112Z,707
2018-09-09T07:27:23.319Z,705
2018-09-09T07:28:30.706Z,708
2018-09-09T07:29:38.003Z,706
2018-09-09T07:30:45.223Z,705
2018-09-09T07:31:52.154Z,705
2018-09-09T07:32:59.086Z,705
2018-09-09T07:34:06.344Z,706
2018-09-09T07:35:13.578Z,706
2018-09-09T07:36:20.789Z,707
2018-09-09T07:37:28.225Z,707
2018-09-09T07:38:35.590Z,705
2018-09-09T07:39:42.799Z,706
2018-09-09T07:40:50.007Z,705
2018-09-09T07:41:56.954Z,705
2018-09-09T07:43:04.166Z,704
2018-09-09T07:44:11.380Z,706
2018-09-09T07:45:18.588Z,707
2018-09-09T07:46:26.027Z,707
2018-09-09T07:47:33.416Z,709
2018-09-09T07:48:40.626Z,708
2018-09-09T07:49:47.839Z,709
2018-09-09T07:50:55.051Z,708
2018-09-09T07:52:01.992Z,708
2018-09-09T07:53:09.205Z,708
2018-09-09T07:54:16.427Z,708
2018-09-09T07:55:23.637Z,706
2018-09-09T07:56:30.847Z,705
2018-09-09T07:57:38.072Z,705
2018-09-09T07:58:45.001Z,704
2018-09-09T07:59:52.217Z,703
2018-09-09T08:00:59.427Z,705
2018-09-09T08:02:06.372Z,702
2018-09-09T08:03:13.586Z,703
2018-09-09T08:04:20.810Z,703
2018-09-09T08:05:28.025Z,700
2018-09-09T08:06:35.238Z,701
2018-09-09T08:07:42.455Z,701
2018-09-09T08:08:49.406Z,700
2018-09-09T08:09:56.619Z,702
2018-09-09T08:11:03.833Z,701
2018-09-09T08:12:11.284Z,703
2018-09-09T08:13:18.373Z,706
2018-09-09T08:14:25.588Z,705
2018-09-09T08:15:32.804Z,708
2018-09-09T08:16:40.023Z,709
2018-09-09T08:17:46.955Z,709
2018-09-09T08:18:54.177Z,709
2018-09-09T08:20:01.390Z,707
2018-09-09T08:21:08.603Z,706
2018-09-09T08:22:15.814Z,707
2018-09-09T08:23:22.747Z,707
2018-09-09T08:24:29.686Z,704
2018-09-09T08:25:36.908Z,702
2018-09-09T08:26:44.116Z,701
2018-09-09T08:27:51.326Z,698
2018-09-09T08:28:58.547Z,696
2018-09-09T08:30:05.764Z,695
2018-09-09T08:31:12.973Z,695
2018-09-09T08:32:20.183Z,691
2018-09-09T08:33:27.121Z,693
2018-09-09T08:34:34.336Z,691
2018-09-09T08:35:41.554Z,690
2018-09-09T08:36:48.769Z,692
2018-09-09T08:37:55.981Z,693
2018-09-09T08:39:03.188Z,695
2018-09-09T08:40:10.403Z,696
2018-09-09T08:41:17.622Z,694
2018-09-09T08:42:24.829Z,694
2018-09-09T08:43:32.044Z,693
2018-09-09T08:44:39.262Z,694
2018-09-09T08:45:46.471Z,692
2018-09-09T08:46:53.143Z,693
2018-09-09T08:48:00.365Z,696
2018-09-09T08:49:22.234Z,697
2018-09-09T08:50:29.457Z,693
2018-09-09T08:51:36.673Z,697
2018-09-09T08:52:43.885Z,698
2018-09-09T08:53:51.114Z,695
2018-09-09T08:54:58.063Z,697
2018-09-09T08:56:05.276Z,698
2018-09-09T08:57:12.214Z,698
2018-09-09T08:58:19.427Z,698
2018-09-09T08:59:26.657Z,697
2018-09-09T09:00:33.867Z,695
2018-09-09T09:01:40.265Z,696
2018-09-09T09:02:47.484Z,694
2018-09-09T09:03:54.695Z,695
2018-09-09T09:05:01.935Z,697
2018-09-09T09:06:09.142Z,696
2018-09-09T09:07:16.117Z,695
2018-09-09T09:08:23.354Z,695
2018-09-09T09:09:30.569Z,692
2018-09-09T09:10:37.776Z,692
2018-09-09T09:11:44.990Z,690
2018-09-09T09:12:52.206Z,690
2018-09-09T09:13:59.433Z,692
2018-09-09T09:15:06.646Z,691
2018-09-09T09:16:13.866Z,689
2018-09-09T09:17:21.080Z,688
2018-09-09T09:18:28.419Z,689
2018-09-09T09:19:35.653Z,689
2018-09-09T09:20:43.231Z,689
2018-09-09T09:21:50.601Z,689
2018-09-09T09:22:57.813Z,689
2018-09-09T09:24:04.759Z,688
2018-09-09T09:25:11.971Z,692
2018-09-09T09:26:19.193Z,693
2018-09-09T09:27:26.407Z,693
2018-09-09T09:28:33.624Z,692
2018-09-09T09:29:40.847Z,693
2018-09-09T09:30:48.457Z,687
2018-09-09T09:31:55.908Z,683
2018-09-09T09:33:03.129Z,681
2018-09-09T09:34:10.346Z,677
2018-09-09T09:35:17.558Z,676
2018-09-09T09:36:24.789Z,683
2018-09-09T09:37:32.007Z,685
2018-09-09T09:38:39.222Z,685
2018-09-09T09:39:46.439Z,685
2018-09-09T09:40:53.382Z,682
2018-09-09T09:42:00.600Z,678
2018-09-09T09:43:08.038Z,676
2018-09-09T09:44:15.242Z,674
2018-09-09T09:45:22.462Z,678
2018-09-09T09:46:29.676Z,677
2018-09-09T09:47:36.896Z,676
2018-09-09T09:48:44.117Z,675
2018-09-09T09:49:51.325Z,682
2018-09-09T09:50:58.548Z,685
2018-09-09T09:52:05.763Z,683
2018-09-09T09:53:13.159Z,681
2018-09-09T09:54:20.409Z,681
2018-09-09T09:55:27.837Z,684
2018-09-09T09:56:35.123Z,684
2018-09-09T09:57:42.343Z,682
2018-09-09T09:58:49.553Z,679
2018-09-09T09:59:56.772Z,678
2018-09-09T10:01:03.997Z,679
2018-09-09T10:02:11.211Z,677
2018-09-09T10:03:18.427Z,679
2018-09-09T10:04:25.650Z,678
2018-09-09T10:05:32.868Z,676
2018-09-09T10:06:40.079Z,674
2018-09-09T10:07:47.293Z,667
2018-09-09T10:08:54.536Z,668
2018-09-09T10:10:01.761Z,667
2018-09-09T10:11:08.705Z,670
2018-09-09T10:12:15.928Z,670
2018-09-09T10:13:22.884Z,671
2018-09-09T10:14:30.101Z,672
2018-09-09T10:15:37.317Z,668
2018-09-09T10:16:44.533Z,662
2018-09-09T10:17:51.748Z,656
2018-09-09T10:18:58.697Z,656
2018-09-09T10:20:05.914Z,658
2018-09-09T10:21:13.134Z,658
2018-09-09T10:22:20.396Z,657
2018-09-09T10:23:27.635Z,659
2018-09-09T10:24:34.564Z,663
2018-09-09T10:25:41.786Z,668
2018-09-09T10:26:49.039Z,669
2018-09-09T10:27:56.264Z,673
2018-09-09T10:29:03.474Z,674
2018-09-09T10:30:11.083Z,675
2018-09-09T10:31:18.461Z,676
2018-09-09T10:32:25.683Z,676
2018-09-09T10:33:32.898Z,674
2018-09-09T10:34:40.113Z,668
2018-09-09T10:35:47.334Z,666
2018-09-09T10:36:54.555Z,671
2018-09-09T10:38:01.774Z,673
2018-09-09T10:39:08.728Z,669
2018-09-09T10:40:15.940Z,663
2018-09-09T10:41:23.186Z,665
2018-09-09T10:42:30.399Z,657
2018-09-09T10:43:37.343Z,654
2018-09-09T10:44:44.566Z,656
2018-09-09T10:45:51.785Z,648
2018-09-09T10:46:59.068Z,652
2018-09-09T10:48:06.417Z,657
2018-09-09T10:49:13.361Z,660
2018-09-09T10:50:20.576Z,659
2018-09-09T10:51:27.792Z,650
2018-09-09T10:52:35.010Z,643
2018-09-09T10:53:42.226Z,638
2018-09-09T10:54:49.444Z,645
2018-09-09T10:55:56.658Z,649
2018-09-09T10:57:03.877Z,652
2018-09-09T10:58:11.097Z,654
2018-09-09T10:59:18.311Z,655
2018-09-09T11:00:25.529Z,643
2018-09-09T11:01:32.750Z,634
2018-09-09T11:02:39.975Z,632
2018-09-09T11:03:46.911Z,637
2018-09-09T11:04:54.134Z,644
2018-09-09T11:06:01.353Z,656
2018-09-09T11:07:08.572Z,652
2018-09-09T11:08:15.794Z,658
2018-09-09T11:09:23.016Z,657
2018-09-09T11:10:30.233Z,659
2018-09-09T11:11:37.446Z,657
2018-09-09T11:12:44.815Z,654
2018-09-09T11:13:52.038Z,649
2018-09-09T11:14:59.256Z,645
2018-09-09T11:16:06.476Z,644
2018-09-09T11:17:13.697Z,640
2018-09-09T11:18:20.908Z,657
2018-09-09T11:19:28.126Z,664
2018-09-09T11:20:35.350Z,674
2018-09-09T11:21:42.570Z,670
2018-09-09T11:22:49.795Z,672
2018-09-09T11:23:56.756Z,672
2018-09-09T11:25:04.008Z,674
2018-09-09T11:26:11.232Z,672
2018-09-09T11:27:18.451Z,671
2018-09-09T11:28:25.674Z,674
2018-09-09T11:29:32.901Z,677
2018-09-09T11:30:40.118Z,681
2018-09-09T11:31:47.344Z,683
2018-09-09T11:32:54.555Z,686
2018-09-09T11:34:01.495Z,684
2018-09-09T11:35:08.442Z,680
2018-09-09T11:36:15.836Z,676
2018-09-09T11:37:23.122Z,678
2018-09-09T11:38:30.347Z,678
2018-09-09T11:39:37.572Z,671
2018-09-09T11:40:45.080Z,667
2018-09-09T11:41:52.354Z,663
2018-09-09T11:42:59.633Z,659
2018-09-09T11:44:06.851Z,660
2018-09-09T11:45:14.071Z,664
2018-09-09T11:46:21.307Z,672
2018-09-09T11:47:28.530Z,672
2018-09-09T11:48:35.754Z,674
2018-09-09T11:49:42.970Z,676
2018-09-09T11:50:50.189Z,673
2018-09-09T11:51:57.413Z,674
2018-09-09T11:53:04.716Z,677
2018-09-09T11:54:11.990Z,679
2018-09-09T11:55:19.214Z,679
2018-09-09T11:56:26.159Z,680
2018-09-09T11:57:33.377Z,674
2018-09-09T11:58:40.323Z,674
2018-09-09T11:59:47.538Z,677
2018-09-09T12:00:54.216Z,674
2018-09-09T12:02:01.587Z,675
2018-09-09T12:03:08.892Z,672
2018-09-09T12:04:15.840Z,673
2018-09-09T12:05:23.058Z,674
2018-09-09T12:06:30.288Z,673
2018-09-09T12:07:37.906Z,675
2018-09-09T12:08:45.335Z,679
2018-09-09T12:09:52.287Z,680
2018-09-09T12:10:59.507Z,677
2018-09-09T12:12:06.726Z,675
2018-09-09T12:13:13.943Z,674
2018-09-09T12:14:20.894Z,675
2018-09-09T12:15:27.837Z,682
2018-09-09T12:16:35.055Z,683
2018-09-09T12:17:42.005Z,681
2018-09-09T12:18:49.219Z,681
2018-09-09T12:19:56.433Z,683
2018-09-09T12:21:03.658Z,685
2018-09-09T12:22:10.883Z,684
2018-09-09T12:23:17.832Z,684
2018-09-09T12:24:25.044Z,683
2018-09-09T12:25:32.261Z,681
2018-09-09T12:26:39.475Z,681
2018-09-09T12:27:46.697Z,682
2018-09-09T12:28:53.914Z,682
2018-09-09T12:30:01.143Z,683
2018-09-09T12:31:08.092Z,681
2018-09-09T12:32:14.907Z,679
2018-09-09T12:33:22.198Z,680
2018-09-09T12:34:29.426Z,679
2018-09-09T12:35:36.652Z,677
2018-09-09T12:36:43.885Z,677
2018-09-09T12:37:51.473Z,677
2018-09-09T12:38:58.870Z,675
2018-09-09T12:40:05.820Z,671
2018-09-09T12:41:13.055Z,669
2018-09-09T12:42:20.275Z,669
2018-09-09T12:43:27.493Z,670
2018-09-09T12:44:34.718Z,666
2018-09-09T12:45:41.943Z,666
2018-09-09T12:46:49.165Z,664
2018-09-09T12:47:56.389Z,669
2018-09-09T12:49:03.612Z,670
2018-09-09T12:50:10.567Z,671
2018-09-09T12:51:17.792Z,669
2018-09-09T12:52:25.011Z,669
2018-09-09T12:53:32.233Z,663
2018-09-09T12:54:39.897Z,659
2018-09-09T12:55:46.838Z,660
2018-09-09T12:56:54.058Z,658
2018-09-09T12:58:01.287Z,660
2018-09-09T12:59:08.232Z,657
2018-09-09T13:00:15.723Z,659
2018-09-09T13:01:22.974Z,660
2018-09-09T13:02:30.202Z,660
2018-09-09T13:03:37.429Z,657
2018-09-09T13:04:44.642Z,657
2018-09-09T13:05:51.860Z,660
2018-09-09T13:06:59.078Z,659
2018-09-09T13:08:06.304Z,652
2018-09-09T13:09:13.515Z,656
2018-09-09T13:10:20.738Z,658
2018-09-09T13:11:27.681Z,658
2018-09-09T13:12:34.900Z,651
2018-09-09T13:13:42.119Z,647
2018-09-09T13:14:49.345Z,644
2018-09-09T13:15:56.557Z,635
2018-09-09T13:17:03.773Z,639
2018-09-09T13:18:10.988Z,641
2018-09-09T13:19:18.208Z,637
2018-09-09T13:20:25.428Z,632
2018-09-09T13:21:32.647Z,625
2018-09-09T13:22:39.901Z,616
2018-09-09T13:23:47.116Z,620
2018-09-09T13:24:54.057Z,620
2018-09-09T13:26:01.311Z,620
2018-09-09T13:27:08.516Z,617
2018-09-09T13:28:15.739Z,621
2018-09-09T13:29:22.955Z,622
2018-09-09T13:30:30.178Z,622
2018-09-09T13:31:37.396Z,617
2018-09-09T13:32:44.611Z,608
2018-09-09T13:33:51.832Z,606
2018-09-09T13:34:59.051Z,606
2018-09-09T13:36:06.274Z,607
2018-09-09T13:37:13.500Z,603
2018-09-09T13:38:20.707Z,604
2018-09-09T13:39:27.930Z,612
2018-09-09T13:40:35.153Z,610
2018-09-09T13:41:42.384Z,620
2018-09-09T13:42:49.591Z,623
2018-09-09T13:43:56.814Z,621
2018-09-09T13:45:04.027Z,623
2018-09-09T13:46:11.244Z,637
2018-09-09T13:47:18.465Z,644
2018-09-09T13:48:25.778Z,650
2018-09-09T13:49:33.139Z,641
2018-09-09T13:50:40.356Z,638
2018-09-09T13:51:47.577Z,650
2018-09-09T13:52:54.795Z,653
2018-09-09T13:54:02.014Z,656
2018-09-09T13:55:09.239Z,650
2018-09-09T13:56:16.457Z,650
2018-09-09T13:57:23.678Z,652
2018-09-09T13:58:30.901Z,646
2018-09-09T13:59:38.117Z,652
2018-09-09T14:00:45.054Z,656
2018-09-09T14:01:52.273Z,656
2018-09-09T14:02:59.488Z,651
2018-09-09T14:04:06.715Z,650
2018-09-09T14:05:13.946Z,654
2018-09-09T14:06:21.170Z,643
2018-09-09T14:07:28.392Z,623
2018-09-09T14:08:35.608Z,614
2018-09-09T14:09:43.127Z,621
2018-09-09T14:10:50.221Z,617
2018-09-09T14:11:57.445Z,618
2018-09-09T14:13:04.663Z,621
2018-09-09T14:14:11.875Z,626
2018-09-09T14:15:19.420Z,626
2018-09-09T14:16:26.540Z,636
2018-09-09T14:17:33.753Z,646
2018-09-09T14:18:40.982Z,656
2018-09-09T14:19:47.930Z,661
2018-09-09T14:20:54.868Z,662
2018-09-09T14:22:01.815Z,658
2018-09-09T14:23:09.034Z,663
2018-09-09T14:24:16.259Z,665
2018-09-09T14:25:23.482Z,662
2018-09-09T14:26:30.712Z,659
2018-09-09T14:27:37.936Z,651
2018-09-09T14:28:45.152Z,629
2018-09-09T14:29:52.387Z,628
2018-09-09T14:30:59.342Z,631
2018-09-09T14:32:06.289Z,630
2018-09-09T14:33:13.537Z,624
2018-09-09T14:34:21.028Z,643
2018-09-09T14:35:28.308Z,658
2018-09-09T14:36:35.528Z,659
2018-09-09T14:37:42.747Z,665
2018-09-09T14:38:49.725Z,664
2018-09-09T14:39:56.944Z,666
2018-09-09T14:41:04.163Z,662
2018-09-09T14:42:11.387Z,655
2018-09-09T14:43:18.608Z,650
2018-09-09T14:44:25.829Z,652
2018-09-09T14:45:33.094Z,656
2018-09-09T14:46:40.309Z,661
2018-09-09T14:47:47.532Z,660
2018-09-09T14:48:54.751Z,656
2018-09-09T14:50:01.965Z,651
2018-09-09T14:51:09.188Z,654
2018-09-09T14:52:16.405Z,660
2018-09-09T14:53:23.871Z,659
2018-09-09T14:54:31.204Z,658
2018-09-09T14:55:38.431Z,652
2018-09-09T14:56:45.649Z,644
2018-09-09T14:57:52.872Z,643
2018-09-09T14:59:00.095Z,633
2018-09-09T15:00:07.338Z,632
2018-09-09T15:01:14.590Z,628
2018-09-09T15:02:21.802Z,622
2018-09-09T15:03:29.021Z,641
2018-09-09T15:04:36.242Z,633
2018-09-09T15:05:43.462Z,627
2018-09-09T15:06:50.792Z,632
2018-09-09T15:07:58.101Z,637
2018-09-09T15:09:05.317Z,633
2018-09-09T15:10:12.533Z,628
2018-09-09T15:11:19.475Z,646
2018-09-09T15:12:26.694Z,648
2018-09-09T15:13:33.652Z,647
2018-09-09T15:14:40.873Z,653
2018-09-09T15:15:48.090Z,661
2018-09-09T15:16:55.312Z,664
2018-09-09T15:18:02.539Z,668
2018-09-09T15:19:09.755Z,662
2018-09-09T15:20:16.977Z,656
2018-09-09T15:21:24.192Z,653
2018-09-09T15:22:31.628Z,654
2018-09-09T15:23:39.036Z,654
2018-09-09T15:24:46.259Z,646
2018-09-09T15:25:53.479Z,644